sensor_id;sensor_type;location;lat;lon;timestamp;P1;durP1;ratioP1;P2;durP2;ratioP2
65234;SDS011;51820;48.374;10.930;2023-03-23T00:00:09;11.15;;;5.80;;
65234;SDS011;51820;48.374;10.930;2023-03-23T00:02:39;10.87;;;5.20;;
65234;SDS011;51820;48.374;10.930;2023-03-23T00:05:06;10.05;;;5.28;;
65234;SDS011;51820;48.374;10.930;2023-03-23T00:07:35;13.75;;;5.00;;
65234;SDS011;51820;48.374;10.930;2023-03-23T00:10:02;9.68;;;5.22;;
65234;SDS011;51820;48.374;10.930;2023-03-23T00:12:31;10.50;;;5.45;;
65234;SDS011;51820;48.374;10.930;2023-03-23T00:14:59;11.77;;;5.70;;
65234;SDS011;51820;48.374;10.930;2023-03-23T00:17:27;15.68;;;6.47;;
65234;SDS011;51820;48.374;10.930;2023-03-23T00:19:54;12.43;;;5.75;;
65234;SDS011;51820;48.374;10.930;2023-03-23T00:22:22;12.15;;;5.70;;
65234;SDS011;51820;48.374;10.930;2023-03-23T00:24:50;13.35;;;5.00;;
65234;SDS011;51820;48.374;10.930;2023-03-23T00:27:17;10.80;;;5.30;;
65234;SDS011;51820;48.374;10.930;2023-03-23T00:29:48;13.15;;;5.20;;
65234;SDS011;51820;48.374;10.930;2023-03-23T00:32:18;10.38;;;4.93;;
65234;SDS011;51820;48.374;10.930;2023-03-23T00:34:46;10.13;;;5.00;;
65234;SDS011;51820;48.374;10.930;2023-03-23T00:37:17;12.13;;;5.18;;
65234;SDS011;51820;48.374;10.930;2023-03-23T00:39:44;10.10;;;4.63;;
65234;SDS011;51820;48.374;10.930;2023-03-23T00:42:12;10.27;;;5.20;;
65234;SDS011;51820;48.374;10.930;2023-03-23T00:44:42;11.88;;;5.88;;
65234;SDS011;51820;48.374;10.930;2023-03-23T00:47:11;12.07;;;5.80;;
65234;SDS011;51820;48.374;10.930;2023-03-23T00:49:45;9.90;;;5.15;;
65234;SDS011;51820;48.374;10.930;2023-03-23T00:52:13;10.00;;;5.00;;
65234;SDS011;51820;48.374;10.930;2023-03-23T00:54:40;11.07;;;5.38;;
65234;SDS011;51820;48.374;10.930;2023-03-23T00:57:11;10.40;;;5.40;;
65234;SDS011;51820;48.374;10.930;2023-03-23T00:59:38;20.50;;;5.93;;
65234;SDS011;51820;48.374;10.930;2023-03-23T01:02:08;10.63;;;4.82;;
65234;SDS011;51820;48.374;10.930;2023-03-23T01:04:45;11.57;;;5.40;;
65234;SDS011;51820;48.374;10.930;2023-03-23T01:07:17;10.07;;;5.13;;
65234;SDS011;51820;48.374;10.930;2023-03-23T01:09:44;10.27;;;5.38;;
65234;SDS011;51820;48.374;10.930;2023-03-23T01:12:12;12.13;;;5.20;;
65234;SDS011;51820;48.374;10.930;2023-03-23T01:14:43;10.77;;;5.22;;
65234;SDS011;51820;48.374;10.930;2023-03-23T01:17:11;9.53;;;4.60;;
65234;SDS011;51820;48.374;10.930;2023-03-23T01:19:42;10.35;;;4.65;;
65234;SDS011;51820;48.374;10.930;2023-03-23T01:22:12;9.43;;;4.53;;
65234;SDS011;51820;48.374;10.930;2023-03-23T01:24:51;10.73;;;4.53;;
65234;SDS011;51820;48.374;10.930;2023-03-23T01:27:21;11.57;;;5.35;;
65234;SDS011;51820;48.374;10.930;2023-03-23T01:29:49;9.67;;;4.60;;
65234;SDS011;51820;48.374;10.930;2023-03-23T01:32:16;11.35;;;4.60;;
65234;SDS011;51820;48.374;10.930;2023-03-23T01:34:48;9.85;;;4.97;;
65234;SDS011;51820;48.374;10.930;2023-03-23T01:37:16;10.18;;;5.18;;
65234;SDS011;51820;48.374;10.930;2023-03-23T01:40:26;10.25;;;4.60;;
65234;SDS011;51820;48.374;10.930;2023-03-23T01:42:54;8.23;;;4.20;;
65234;SDS011;51820;48.374;10.930;2023-03-23T01:45:31;9.48;;;4.57;;
65234;SDS011;51820;48.374;10.930;2023-03-23T01:48:01;11.27;;;4.63;;
65234;SDS011;51820;48.374;10.930;2023-03-23T01:50:44;10.32;;;4.90;;
65234;SDS011;51820;48.374;10.930;2023-03-23T01:53:16;11.50;;;4.88;;
65234;SDS011;51820;48.374;10.930;2023-03-23T01:55:43;10.17;;;4.50;;
65234;SDS011;51820;48.374;10.930;2023-03-23T01:58:13;9.95;;;4.60;;
65234;SDS011;51820;48.374;10.930;2023-03-23T02:00:43;10.52;;;4.85;;
65234;SDS011;51820;48.374;10.930;2023-03-23T02:03:10;12.43;;;4.70;;
65234;SDS011;51820;48.374;10.930;2023-03-23T02:05:43;8.93;;;4.50;;
65234;SDS011;51820;48.374;10.930;2023-03-23T02:08:16;10.37;;;4.27;;
65234;SDS011;51820;48.374;10.930;2023-03-23T02:10:45;9.57;;;4.60;;
65234;SDS011;51820;48.374;10.930;2023-03-23T02:13:12;9.32;;;4.57;;
65234;SDS011;51820;48.374;10.930;2023-03-23T02:15:45;9.85;;;4.80;;
65234;SDS011;51820;48.374;10.930;2023-03-23T02:24:17;12.85;;;4.53;;
65234;SDS011;51820;48.374;10.930;2023-03-23T02:27:05;10.40;;;4.80;;
65234;SDS011;51820;48.374;10.930;2023-03-23T02:32:53;9.68;;;4.45;;
65234;SDS011;51820;48.374;10.930;2023-03-23T02:35:47;10.37;;;4.43;;
65234;SDS011;51820;48.374;10.930;2023-03-23T02:38:20;9.95;;;4.20;;
65234;SDS011;51820;48.374;10.930;2023-03-23T02:40:50;9.48;;;4.50;;
65234;SDS011;51820;48.374;10.930;2023-03-23T02:43:20;12.50;;;4.55;;
65234;SDS011;51820;48.374;10.930;2023-03-23T02:45:50;11.85;;;4.60;;
65234;SDS011;51820;48.374;10.930;2023-03-23T02:48:20;11.60;;;4.80;;
65234;SDS011;51820;48.374;10.930;2023-03-23T02:50:51;9.93;;;4.40;;
65234;SDS011;51820;48.374;10.930;2023-03-23T02:53:19;11.70;;;4.35;;
65234;SDS011;51820;48.374;10.930;2023-03-23T02:55:50;7.90;;;3.95;;
65234;SDS011;51820;48.374;10.930;2023-03-23T02:58:24;9.50;;;4.78;;
65234;SDS011;51820;48.374;10.930;2023-03-23T03:00:51;9.73;;;4.20;;
65234;SDS011;51820;48.374;10.930;2023-03-23T03:03:22;9.27;;;4.00;;
65234;SDS011;51820;48.374;10.930;2023-03-23T03:05:53;10.88;;;4.25;;
65234;SDS011;51820;48.374;10.930;2023-03-23T03:08:30;9.00;;;4.28;;
65234;SDS011;51820;48.374;10.930;2023-03-23T03:11:06;9.20;;;3.85;;
65234;SDS011;51820;48.374;10.930;2023-03-23T03:13:39;9.30;;;4.63;;
65234;SDS011;51820;48.374;10.930;2023-03-23T03:16:18;8.45;;;4.07;;
65234;SDS011;51820;48.374;10.930;2023-03-23T03:18:54;9.55;;;4.30;;
65234;SDS011;51820;48.374;10.930;2023-03-23T03:21:25;10.77;;;3.95;;
65234;SDS011;51820;48.374;10.930;2023-03-23T03:23:58;8.07;;;4.25;;
65234;SDS011;51820;48.374;10.930;2023-03-23T03:26:28;10.47;;;4.20;;
65234;SDS011;51820;48.374;10.930;2023-03-23T03:29:07;8.45;;;4.13;;
65234;SDS011;51820;48.374;10.930;2023-03-23T03:31:41;10.07;;;4.03;;
65234;SDS011;51820;48.374;10.930;2023-03-23T03:34:13;9.13;;;3.70;;
65234;SDS011;51820;48.374;10.930;2023-03-23T03:36:46;8.43;;;3.95;;
65234;SDS011;51820;48.374;10.930;2023-03-23T03:39:16;10.07;;;4.40;;
65234;SDS011;51820;48.374;10.930;2023-03-23T03:41:46;7.55;;;3.53;;
65234;SDS011;51820;48.374;10.930;2023-03-23T03:44:13;8.23;;;3.85;;
65234;SDS011;51820;48.374;10.930;2023-03-23T03:46:41;8.63;;;3.50;;
65234;SDS011;51820;48.374;10.930;2023-03-23T03:49:10;9.55;;;4.07;;
65234;SDS011;51820;48.374;10.930;2023-03-23T03:51:43;11.93;;;4.50;;
65234;SDS011;51820;48.374;10.930;2023-03-23T03:54:18;8.65;;;3.92;;
65234;SDS011;51820;48.374;10.930;2023-03-23T03:56:46;9.73;;;4.18;;
65234;SDS011;51820;48.374;10.930;2023-03-23T03:59:36;10.63;;;4.07;;
65234;SDS011;51820;48.374;10.930;2023-03-23T04:02:35;8.43;;;3.95;;
65234;SDS011;51820;48.374;10.930;2023-03-23T04:05:03;8.00;;;3.50;;
65234;SDS011;51820;48.374;10.930;2023-03-23T04:07:33;11.57;;;3.75;;
65234;SDS011;51820;48.374;10.930;2023-03-23T04:10:04;8.70;;;3.63;;
65234;SDS011;51820;48.374;10.930;2023-03-23T04:12:33;9.00;;;3.90;;
65234;SDS011;51820;48.374;10.930;2023-03-23T04:15:19;8.07;;;3.90;;
65234;SDS011;51820;48.374;10.930;2023-03-23T04:17:47;8.33;;;3.63;;
65234;SDS011;51820;48.374;10.930;2023-03-23T04:20:15;8.63;;;3.47;;
65234;SDS011;51820;48.374;10.930;2023-03-23T04:22:49;10.57;;;3.97;;
65234;SDS011;51820;48.374;10.930;2023-03-23T04:25:18;8.10;;;3.70;;
65234;SDS011;51820;48.374;10.930;2023-03-23T04:27:48;7.03;;;3.20;;
65234;SDS011;51820;48.374;10.930;2023-03-23T04:30:23;7.97;;;3.60;;
65234;SDS011;51820;48.374;10.930;2023-03-23T04:33:07;10.15;;;3.70;;
65234;SDS011;51820;48.374;10.930;2023-03-23T04:35:42;7.85;;;3.88;;
65234;SDS011;51820;48.374;10.930;2023-03-23T04:38:17;7.90;;;3.22;;
65234;SDS011;51820;48.374;10.930;2023-03-23T04:40:48;7.97;;;3.47;;
65234;SDS011;51820;48.374;10.930;2023-03-23T04:43:39;12.13;;;3.23;;
65234;SDS011;51820;48.374;10.930;2023-03-23T04:46:30;7.75;;;3.63;;
65234;SDS011;51820;48.374;10.930;2023-03-23T04:49:04;8.18;;;3.10;;
65234;SDS011;51820;48.374;10.930;2023-03-23T04:51:35;7.13;;;3.15;;
65234;SDS011;51820;48.374;10.930;2023-03-23T04:54:20;8.20;;;4.18;;
65234;SDS011;51820;48.374;10.930;2023-03-23T04:56:52;7.37;;;3.40;;
65234;SDS011;51820;48.374;10.930;2023-03-23T04:59:20;8.55;;;2.95;;
65234;SDS011;51820;48.374;10.930;2023-03-23T05:02:13;8.70;;;3.38;;
65234;SDS011;51820;48.374;10.930;2023-03-23T05:04:45;7.38;;;3.00;;
65234;SDS011;51820;48.374;10.930;2023-03-23T05:07:19;7.85;;;3.28;;
65234;SDS011;51820;48.374;10.930;2023-03-23T05:09:49;8.87;;;3.80;;
65234;SDS011;51820;48.374;10.930;2023-03-23T05:12:20;7.78;;;3.70;;
65234;SDS011;51820;48.374;10.930;2023-03-23T05:14:53;9.10;;;4.07;;
65234;SDS011;51820;48.374;10.930;2023-03-23T05:17:24;7.65;;;3.38;;
65234;SDS011;51820;48.374;10.930;2023-03-23T05:19:55;9.90;;;3.53;;
65234;SDS011;51820;48.374;10.930;2023-03-23T05:22:34;10.97;;;3.70;;
65234;SDS011;51820;48.374;10.930;2023-03-23T05:25:05;10.82;;;3.88;;
65234;SDS011;51820;48.374;10.930;2023-03-23T05:27:38;8.07;;;3.45;;
65234;SDS011;51820;48.374;10.930;2023-03-23T05:30:20;8.98;;;3.50;;
65234;SDS011;51820;48.374;10.930;2023-03-23T05:32:47;7.30;;;3.53;;
65234;SDS011;51820;48.374;10.930;2023-03-23T05:35:31;9.60;;;3.37;;
65234;SDS011;51820;48.374;10.930;2023-03-23T05:38:00;7.57;;;3.50;;
65234;SDS011;51820;48.374;10.930;2023-03-23T05:40:29;12.02;;;3.85;;
65234;SDS011;51820;48.374;10.930;2023-03-23T05:43:02;8.95;;;3.40;;
65234;SDS011;51820;48.374;10.930;2023-03-23T05:45:40;8.75;;;3.40;;
65234;SDS011;51820;48.374;10.930;2023-03-23T05:48:08;9.00;;;3.40;;
65234;SDS011;51820;48.374;10.930;2023-03-23T05:50:35;9.05;;;3.85;;
65234;SDS011;51820;48.374;10.930;2023-03-23T05:53:03;7.63;;;3.40;;
65234;SDS011;51820;48.374;10.930;2023-03-23T05:55:35;8.07;;;3.03;;
65234;SDS011;51820;48.374;10.930;2023-03-23T05:58:15;8.68;;;3.70;;
65234;SDS011;51820;48.374;10.930;2023-03-23T06:00:44;8.60;;;3.53;;
65234;SDS011;51820;48.374;10.930;2023-03-23T06:03:19;10.82;;;3.40;;
65234;SDS011;51820;48.374;10.930;2023-03-23T06:06:02;8.38;;;3.30;;
65234;SDS011;51820;48.374;10.930;2023-03-23T06:08:37;12.50;;;2.97;;
65234;SDS011;51820;48.374;10.930;2023-03-23T06:11:06;7.75;;;3.15;;
65234;SDS011;51820;48.374;10.930;2023-03-23T06:13:40;6.70;;;2.90;;
65234;SDS011;51820;48.374;10.930;2023-03-23T06:16:09;8.70;;;3.20;;
65234;SDS011;51820;48.374;10.930;2023-03-23T06:18:50;8.85;;;3.33;;
65234;SDS011;51820;48.374;10.930;2023-03-23T06:21:31;7.97;;;3.42;;
65234;SDS011;51820;48.374;10.930;2023-03-23T06:24:09;6.95;;;3.13;;
65234;SDS011;51820;48.374;10.930;2023-03-23T06:26:38;7.50;;;2.87;;
65234;SDS011;51820;48.374;10.930;2023-03-23T06:29:13;12.82;;;3.65;;
65234;SDS011;51820;48.374;10.930;2023-03-23T06:31:48;6.88;;;2.97;;
65234;SDS011;51820;48.374;10.930;2023-03-23T06:34:19;12.90;;;3.33;;
65234;SDS011;51820;48.374;10.930;2023-03-23T06:37:10;8.05;;;2.92;;
65234;SDS011;51820;48.374;10.930;2023-03-23T06:39:49;7.63;;;2.90;;
65234;SDS011;51820;48.374;10.930;2023-03-23T06:42:38;25.27;;;9.65;;
65234;SDS011;51820;48.374;10.930;2023-03-23T06:45:25;15.30;;;5.53;;
65234;SDS011;51820;48.374;10.930;2023-03-23T06:48:16;8.70;;;3.53;;
65234;SDS011;51820;48.374;10.930;2023-03-23T06:50:43;7.93;;;3.17;;
65234;SDS011;51820;48.374;10.930;2023-03-23T06:53:14;20.23;;;7.27;;
65234;SDS011;51820;48.374;10.930;2023-03-23T06:55:43;12.38;;;3.53;;
65234;SDS011;51820;48.374;10.930;2023-03-23T06:58:12;9.27;;;3.05;;
65234;SDS011;51820;48.374;10.930;2023-03-23T07:00:40;9.02;;;3.05;;
65234;SDS011;51820;48.374;10.930;2023-03-23T07:03:11;8.60;;;3.30;;
65234;SDS011;51820;48.374;10.930;2023-03-23T07:05:39;12.63;;;3.50;;
65234;SDS011;51820;48.374;10.930;2023-03-23T07:08:08;13.48;;;3.67;;
65234;SDS011;51820;48.374;10.930;2023-03-23T07:10:43;9.88;;;3.50;;
65234;SDS011;51820;48.374;10.930;2023-03-23T07:13:13;9.75;;;3.25;;
65234;SDS011;51820;48.374;10.930;2023-03-23T07:15:47;7.65;;;3.30;;
65234;SDS011;51820;48.374;10.930;2023-03-23T07:18:16;10.13;;;3.57;;
65234;SDS011;51820;48.374;10.930;2023-03-23T07:20:47;8.93;;;3.95;;
65234;SDS011;51820;48.374;10.930;2023-03-23T07:23:15;8.85;;;3.88;;
65234;SDS011;51820;48.374;10.930;2023-03-23T07:26:03;8.70;;;3.42;;
65234;SDS011;51820;48.374;10.930;2023-03-23T07:28:39;9.60;;;3.83;;
65234;SDS011;51820;48.374;10.930;2023-03-23T07:31:20;7.83;;;3.30;;
65234;SDS011;51820;48.374;10.930;2023-03-23T07:33:48;13.15;;;4.22;;
65234;SDS011;51820;48.374;10.930;2023-03-23T07:36:19;12.77;;;4.40;;
65234;SDS011;51820;48.374;10.930;2023-03-23T07:38:46;9.77;;;3.20;;
65234;SDS011;51820;48.374;10.930;2023-03-23T07:41:15;8.77;;;3.65;;
65234;SDS011;51820;48.374;10.930;2023-03-23T07:43:45;9.07;;;3.43;;
65234;SDS011;51820;48.374;10.930;2023-03-23T07:46:20;8.30;;;3.38;;
65234;SDS011;51820;48.374;10.930;2023-03-23T07:48:55;8.82;;;3.15;;
65234;SDS011;51820;48.374;10.930;2023-03-23T07:51:30;8.93;;;3.28;;
65234;SDS011;51820;48.374;10.930;2023-03-23T07:53:57;9.68;;;3.53;;
65234;SDS011;51820;48.374;10.930;2023-03-23T07:56:48;9.63;;;3.70;;
65234;SDS011;51820;48.374;10.930;2023-03-23T07:59:27;11.55;;;3.45;;
65234;SDS011;51820;48.374;10.930;2023-03-23T08:01:56;8.98;;;3.45;;
65234;SDS011;51820;48.374;10.930;2023-03-23T08:04:32;8.32;;;3.58;;
65234;SDS011;51820;48.374;10.930;2023-03-23T08:07:08;7.78;;;4.00;;
65234;SDS011;51820;48.374;10.930;2023-03-23T08:10:07;9.30;;;3.70;;
65234;SDS011;51820;48.374;10.930;2023-03-23T08:12:40;10.07;;;3.35;;
65234;SDS011;51820;48.374;10.930;2023-03-23T08:15:39;8.95;;;3.60;;
65234;SDS011;51820;48.374;10.930;2023-03-23T08:18:21;9.10;;;3.50;;
65234;SDS011;51820;48.374;10.930;2023-03-23T08:21:04;8.93;;;3.33;;
65234;SDS011;51820;48.374;10.930;2023-03-23T08:23:40;9.67;;;3.33;;
65234;SDS011;51820;48.374;10.930;2023-03-23T08:26:26;7.72;;;3.63;;
65234;SDS011;51820;48.374;10.930;2023-03-23T08:29:09;8.38;;;3.53;;
65234;SDS011;51820;48.374;10.930;2023-03-23T08:31:56;9.63;;;3.08;;
65234;SDS011;51820;48.374;10.930;2023-03-23T08:34:38;7.38;;;3.50;;
65234;SDS011;51820;48.374;10.930;2023-03-23T08:37:25;9.37;;;3.40;;
65234;SDS011;51820;48.374;10.930;2023-03-23T08:40:06;7.53;;;3.03;;
65234;SDS011;51820;48.374;10.930;2023-03-23T08:42:54;9.93;;;3.10;;
65234;SDS011;51820;48.374;10.930;2023-03-23T08:45:27;6.30;;;2.63;;
65234;SDS011;51820;48.374;10.930;2023-03-23T08:48:30;7.05;;;3.08;;
65234;SDS011;51820;48.374;10.930;2023-03-23T08:51:17;10.07;;;2.80;;
65234;SDS011;51820;48.374;10.930;2023-03-23T08:54:03;7.13;;;2.00;;
65234;SDS011;51820;48.374;10.930;2023-03-23T08:56:55;7.13;;;1.80;;
65234;SDS011;51820;48.374;10.930;2023-03-23T08:59:41;4.63;;;1.65;;
65234;SDS011;51820;48.374;10.930;2023-03-23T09:02:32;6.45;;;1.58;;
65234;SDS011;51820;48.374;10.930;2023-03-23T09:05:22;6.40;;;1.67;;
65234;SDS011;51820;48.374;10.930;2023-03-23T09:08:01;7.15;;;1.50;;
65234;SDS011;51820;48.374;10.930;2023-03-23T09:10:29;5.97;;;1.60;;
65234;SDS011;51820;48.374;10.930;2023-03-23T09:12:57;4.38;;;1.40;;
65234;SDS011;51820;48.374;10.930;2023-03-23T09:15:25;5.95;;;1.55;;
65234;SDS011;51820;48.374;10.930;2023-03-23T09:17:52;4.40;;;1.20;;
65234;SDS011;51820;48.374;10.930;2023-03-23T09:20:24;3.95;;;1.00;;
65234;SDS011;51820;48.374;10.930;2023-03-23T09:22:54;6.43;;;1.60;;
65234;SDS011;51820;48.374;10.930;2023-03-23T09:25:24;7.72;;;1.52;;
65234;SDS011;51820;48.374;10.930;2023-03-23T09:27:56;5.57;;;1.70;;
65234;SDS011;51820;48.374;10.930;2023-03-23T09:30:28;4.50;;;1.47;;
65234;SDS011;51820;48.374;10.930;2023-03-23T09:32:59;4.60;;;1.40;;
65234;SDS011;51820;48.374;10.930;2023-03-23T09:35:33;5.32;;;1.50;;
65234;SDS011;51820;48.374;10.930;2023-03-23T09:38:06;8.57;;;1.95;;
65234;SDS011;51820;48.374;10.930;2023-03-23T09:40:37;4.38;;;1.40;;
65234;SDS011;51820;48.374;10.930;2023-03-23T09:43:18;6.67;;;1.47;;
65234;SDS011;51820;48.374;10.930;2023-03-23T09:45:58;6.28;;;2.20;;
65234;SDS011;51820;48.374;10.930;2023-03-23T09:48:49;4.00;;;1.30;;
65234;SDS011;51820;48.374;10.930;2023-03-23T09:51:35;5.50;;;1.70;;
65234;SDS011;51820;48.374;10.930;2023-03-23T09:54:10;5.03;;;1.70;;
65234;SDS011;51820;48.374;10.930;2023-03-23T09:56:41;5.23;;;1.57;;
65234;SDS011;51820;48.374;10.930;2023-03-23T09:59:12;5.18;;;1.40;;
65234;SDS011;51820;48.374;10.930;2023-03-23T10:01:44;5.78;;;1.70;;
65234;SDS011;51820;48.374;10.930;2023-03-23T10:04:15;5.47;;;1.63;;
65234;SDS011;51820;48.374;10.930;2023-03-23T10:06:53;4.65;;;1.35;;
65234;SDS011;51820;48.374;10.930;2023-03-23T10:09:25;5.07;;;1.70;;
65234;SDS011;51820;48.374;10.930;2023-03-23T10:11:56;6.88;;;1.85;;
65234;SDS011;51820;48.374;10.930;2023-03-23T10:14:42;6.30;;;1.73;;
65234;SDS011;51820;48.374;10.930;2023-03-23T10:17:17;5.10;;;1.50;;
65234;SDS011;51820;48.374;10.930;2023-03-23T10:19:51;5.55;;;1.70;;
65234;SDS011;51820;48.374;10.930;2023-03-23T10:22:25;6.47;;;1.40;;
65234;SDS011;51820;48.374;10.930;2023-03-23T10:24:57;7.97;;;2.00;;
65234;SDS011;51820;48.374;10.930;2023-03-23T10:27:31;5.47;;;1.50;;
65234;SDS011;51820;48.374;10.930;2023-03-23T10:30:10;5.85;;;1.65;;
65234;SDS011;51820;48.374;10.930;2023-03-23T10:33:01;4.35;;;1.55;;
65234;SDS011;51820;48.374;10.930;2023-03-23T10:35:33;4.47;;;1.57;;
65234;SDS011;51820;48.374;10.930;2023-03-23T10:38:06;5.25;;;1.63;;
65234;SDS011;51820;48.374;10.930;2023-03-23T10:40:45;5.97;;;1.77;;
65234;SDS011;51820;48.374;10.930;2023-03-23T10:43:16;7.30;;;1.92;;
65234;SDS011;51820;48.374;10.930;2023-03-23T10:45:46;6.53;;;1.77;;
65234;SDS011;51820;48.374;10.930;2023-03-23T10:48:21;5.60;;;1.50;;
65234;SDS011;51820;48.374;10.930;2023-03-23T10:50:54;6.95;;;1.42;;
65234;SDS011;51820;48.374;10.930;2023-03-23T10:53:26;4.75;;;1.70;;
65234;SDS011;51820;48.374;10.930;2023-03-23T10:56:01;5.53;;;1.38;;
65234;SDS011;51820;48.374;10.930;2023-03-23T10:58:32;6.32;;;1.80;;
65234;SDS011;51820;48.374;10.930;2023-03-23T11:01:02;5.77;;;1.53;;
65234;SDS011;51820;48.374;10.930;2023-03-23T11:03:40;5.95;;;1.42;;
65234;SDS011;51820;48.374;10.930;2023-03-23T11:06:18;4.80;;;1.60;;
65234;SDS011;51820;48.374;10.930;2023-03-23T11:08:50;4.35;;;1.55;;
65234;SDS011;51820;48.374;10.930;2023-03-23T11:11:26;4.55;;;1.70;;
65234;SDS011;51820;48.374;10.930;2023-03-23T11:13:58;6.27;;;2.10;;
65234;SDS011;51820;48.374;10.930;2023-03-23T11:16:27;4.47;;;1.48;;
65234;SDS011;51820;48.374;10.930;2023-03-23T11:18:57;4.43;;;1.65;;
65234;SDS011;51820;48.374;10.930;2023-03-23T11:21:25;7.55;;;2.20;;
65234;SDS011;51820;48.374;10.930;2023-03-23T11:23:55;5.28;;;1.20;;
65234;SDS011;51820;48.374;10.930;2023-03-23T11:26:25;5.63;;;1.67;;
65234;SDS011;51820;48.374;10.930;2023-03-23T11:28:55;8.40;;;2.97;;
65234;SDS011;51820;48.374;10.930;2023-03-23T11:31:27;5.47;;;1.60;;
65234;SDS011;51820;48.374;10.930;2023-03-23T11:33:57;4.55;;;1.30;;
65234;SDS011;51820;48.374;10.930;2023-03-23T11:36:33;4.82;;;1.50;;
65234;SDS011;51820;48.374;10.930;2023-03-23T11:39:16;3.90;;;1.40;;
65234;SDS011;51820;48.374;10.930;2023-03-23T11:41:47;5.13;;;1.50;;
65234;SDS011;51820;48.374;10.930;2023-03-23T11:44:15;4.70;;;1.50;;
65234;SDS011;51820;48.374;10.930;2023-03-23T11:46:53;4.30;;;1.45;;
65234;SDS011;51820;48.374;10.930;2023-03-23T11:49:29;5.72;;;1.60;;
65234;SDS011;51820;48.374;10.930;2023-03-23T11:52:07;6.07;;;1.40;;
65234;SDS011;51820;48.374;10.930;2023-03-23T11:54:40;4.70;;;1.42;;
65234;SDS011;51820;48.374;10.930;2023-03-23T11:57:13;6.57;;;1.63;;
65234;SDS011;51820;48.374;10.930;2023-03-23T11:59:41;8.25;;;1.60;;
65234;SDS011;51820;48.374;10.930;2023-03-23T12:02:26;5.00;;;1.42;;
65234;SDS011;51820;48.374;10.930;2023-03-23T12:08:14;6.45;;;1.70;;
65234;SDS011;51820;48.374;10.930;2023-03-23T12:10:58;4.90;;;1.60;;
65234;SDS011;51820;48.374;10.930;2023-03-23T12:13:36;5.47;;;1.48;;
65234;SDS011;51820;48.374;10.930;2023-03-23T12:16:37;4.50;;;1.40;;
65234;SDS011;51820;48.374;10.930;2023-03-23T12:19:16;5.07;;;1.07;;
65234;SDS011;51820;48.374;10.930;2023-03-23T12:21:53;5.57;;;1.40;;
65234;SDS011;51820;48.374;10.930;2023-03-23T12:24:34;8.90;;;1.67;;
65234;SDS011;51820;48.374;10.930;2023-03-23T12:27:14;5.40;;;1.40;;
65234;SDS011;51820;48.374;10.930;2023-03-23T12:30:00;4.45;;;1.30;;
65234;SDS011;51820;48.374;10.930;2023-03-23T12:32:41;4.97;;;1.37;;
65234;SDS011;51820;48.374;10.930;2023-03-23T12:35:24;4.10;;;1.30;;
65234;SDS011;51820;48.374;10.930;2023-03-23T12:38:04;5.68;;;2.10;;
65234;SDS011;51820;48.374;10.930;2023-03-23T12:40:46;9.18;;;1.50;;
65234;SDS011;51820;48.374;10.930;2023-03-23T12:43:20;8.50;;;1.48;;
65234;SDS011;51820;48.374;10.930;2023-03-23T12:45:55;4.83;;;1.43;;
65234;SDS011;51820;48.374;10.930;2023-03-23T12:48:35;5.90;;;1.35;;
65234;SDS011;51820;48.374;10.930;2023-03-23T12:51:11;4.70;;;1.48;;
65234;SDS011;51820;48.374;10.930;2023-03-23T12:53:46;7.03;;;1.25;;
65234;SDS011;51820;48.374;10.930;2023-03-23T12:56:20;4.57;;;1.50;;
65234;SDS011;51820;48.374;10.930;2023-03-23T12:58:53;6.73;;;1.30;;
65234;SDS011;51820;48.374;10.930;2023-03-23T13:01:28;5.78;;;1.45;;
65234;SDS011;51820;48.374;10.930;2023-03-23T13:03:59;4.47;;;1.50;;
65234;SDS011;51820;48.374;10.930;2023-03-23T13:06:32;5.05;;;1.33;;
65234;SDS011;51820;48.374;10.930;2023-03-23T13:09:03;5.82;;;1.60;;
65234;SDS011;51820;48.374;10.930;2023-03-23T13:11:35;5.60;;;1.47;;
65234;SDS011;51820;48.374;10.930;2023-03-23T13:14:09;6.03;;;1.45;;
65234;SDS011;51820;48.374;10.930;2023-03-23T13:16:44;4.93;;;1.65;;
65234;SDS011;51820;48.374;10.930;2023-03-23T13:19:19;5.22;;;1.30;;
65234;SDS011;51820;48.374;10.930;2023-03-23T13:21:53;4.82;;;1.30;;
65234;SDS011;51820;48.374;10.930;2023-03-23T13:24:27;3.90;;;1.40;;
65234;SDS011;51820;48.374;10.930;2023-03-23T13:26:58;8.68;;;1.30;;
65234;SDS011;51820;48.374;10.930;2023-03-23T13:29:27;4.53;;;1.40;;
65234;SDS011;51820;48.374;10.930;2023-03-23T13:32:06;5.65;;;1.40;;
65234;SDS011;51820;48.374;10.930;2023-03-23T13:34:39;4.45;;;1.40;;
65234;SDS011;51820;48.374;10.930;2023-03-23T13:37:09;11.20;;;2.47;;
65234;SDS011;51820;48.374;10.930;2023-03-23T13:39:48;5.30;;;1.27;;
65234;SDS011;51820;48.374;10.930;2023-03-23T13:42:21;5.00;;;1.52;;
65234;SDS011;51820;48.374;10.930;2023-03-23T13:45:06;6.70;;;2.03;;
65234;SDS011;51820;48.374;10.930;2023-03-23T13:47:44;5.13;;;1.50;;
65234;SDS011;51820;48.374;10.930;2023-03-23T13:50:13;6.43;;;1.87;;
65234;SDS011;51820;48.374;10.930;2023-03-23T13:52:55;7.05;;;1.85;;
65234;SDS011;51820;48.374;10.930;2023-03-23T13:55:30;4.97;;;1.50;;
65234;SDS011;51820;48.374;10.930;2023-03-23T13:58:10;6.82;;;2.50;;
65234;SDS011;51820;48.374;10.930;2023-03-23T14:01:00;6.70;;;1.95;;
65234;SDS011;51820;48.374;10.930;2023-03-23T14:03:37;4.37;;;1.30;;
65234;SDS011;51820;48.374;10.930;2023-03-23T14:06:07;5.75;;;1.50;;
65234;SDS011;51820;48.374;10.930;2023-03-23T14:09:03;5.30;;;1.70;;
65234;SDS011;51820;48.374;10.930;2023-03-23T14:11:32;4.70;;;1.60;;
65234;SDS011;51820;48.374;10.930;2023-03-23T14:14:07;6.70;;;1.42;;
65234;SDS011;51820;48.374;10.930;2023-03-23T14:16:43;6.00;;;2.00;;
65234;SDS011;51820;48.374;10.930;2023-03-23T14:19:15;4.78;;;1.50;;
65234;SDS011;51820;48.374;10.930;2023-03-23T14:21:49;4.38;;;1.50;;
65234;SDS011;51820;48.374;10.930;2023-03-23T14:24:20;5.75;;;1.50;;
65234;SDS011;51820;48.374;10.930;2023-03-23T14:26:51;14.30;;;6.95;;
65234;SDS011;51820;48.374;10.930;2023-03-23T14:29:20;4.50;;;1.87;;
65234;SDS011;51820;48.374;10.930;2023-03-23T14:31:54;5.88;;;1.58;;
65234;SDS011;51820;48.374;10.930;2023-03-23T14:34:24;6.10;;;1.52;;
65234;SDS011;51820;48.374;10.930;2023-03-23T14:36:52;4.22;;;1.30;;
65234;SDS011;51820;48.374;10.930;2023-03-23T14:39:22;4.80;;;1.40;;
65234;SDS011;51820;48.374;10.930;2023-03-23T14:41:53;6.50;;;1.60;;
65234;SDS011;51820;48.374;10.930;2023-03-23T14:44:23;4.55;;;1.75;;
65234;SDS011;51820;48.374;10.930;2023-03-23T14:46:54;7.57;;;2.00;;
65234;SDS011;51820;48.374;10.930;2023-03-23T14:49:26;6.60;;;1.90;;
65234;SDS011;51820;48.374;10.930;2023-03-23T14:51:57;4.82;;;1.52;;
65234;SDS011;51820;48.374;10.930;2023-03-23T14:54:31;4.37;;;1.33;;
65234;SDS011;51820;48.374;10.930;2023-03-23T14:57:02;5.43;;;1.60;;
65234;SDS011;51820;48.374;10.930;2023-03-23T14:59:35;5.13;;;1.60;;
65234;SDS011;51820;48.374;10.930;2023-03-23T15:02:04;6.18;;;1.70;;
65234;SDS011;51820;48.374;10.930;2023-03-23T15:04:31;4.38;;;1.63;;
65234;SDS011;51820;48.374;10.930;2023-03-23T15:06:59;5.57;;;1.50;;
65234;SDS011;51820;48.374;10.930;2023-03-23T15:09:29;5.88;;;1.65;;
65234;SDS011;51820;48.374;10.930;2023-03-23T15:11:58;5.18;;;1.77;;
65234;SDS011;51820;48.374;10.930;2023-03-23T15:14:27;5.03;;;1.73;;
65234;SDS011;51820;48.374;10.930;2023-03-23T15:16:57;7.25;;;1.75;;
65234;SDS011;51820;48.374;10.930;2023-03-23T15:19:31;4.90;;;1.80;;
65234;SDS011;51820;48.374;10.930;2023-03-23T15:22:04;4.35;;;1.42;;
65234;SDS011;51820;48.374;10.930;2023-03-23T15:24:32;6.80;;;1.73;;